Palma, Spain

6:45 PM CEST on September 27, 2016 (GMT +0200)
Sa Indioteria | | Change Station
Active Advisory: >>

Elev 154 ft 39.61 °N, 2.68 °E | Updated 14 minutes ago

Partly Cloudy
Partly Cloudy
75.2 °F
Feels Like 76 °F
N
6.0
Wind Variable Wind from North
Gusts 9.2 mph

Today
High -- | Low -- °F
--% Chance of Precip.
Yesterday
High -- | Low -- °F
Precip. -- in
Pressure 30.21 in
Visibility 6.2 miles
Clouds Few 2000 ft
Heat Index 76 °F
Dew Point 67.9 °F
Humidity 78%
Rainfall 0.04 in
Snow Depth Not available.
7:41 AM 7:37 PM
Waning Crescent, 10% visible
METAR LEPA 271630Z 08006KT 9999 FEW020 24/15 Q1023 NOSIG
Pressure 30.21 in
Visibility 6.2 miles
Clouds Few 2000 ft
Heat Index 76 °F
Dew Point 67.9 °F
Humidity 78%
Rainfall 0.04 in
Snow Depth Not available.
7:41 AM 7:37 PM
Waning Crescent, 10% visible
METAR LEPA 271630Z 08006KT 9999 FEW020 24/15 Q1023 NOSIG

10-Day Weather Forecast

×

Almanac

Astronomy

Sep. 27, 2016 Rise Set
Actual Time
Civil Twilight
Nautical Twilight
Astronomical Twilight
Moon
Length of Visible Light
Length of Day
Tomorrow will be .
, % of the Moon is Illuminated

Today's Extremes

Country Highs Country Lows

Community

WunderPhotos

Upload Photos

1,942,128 photos uploaded!

WunderBlog® & News

Nearby

Air Quality

  Air Quality AQ Index Pollutant
Not available.

Snow Depth

Station Depth Elevation

Earthquake Activity

City Distance Mag. Time & Date
Minimum magnitude displayed is 2.5.

Coastal Water Temperatures

Place Temperature

Stations

Nearby Weather Stations

Station Location Temp. Windchill Dew Point Humidity Wind Precip. Elev Updated Type